createdAt,value
2023-02-22T00:02:13.301Z,7.83
2023-02-22T00:04:41.756Z,8.93
2023-02-22T00:07:10.294Z,9.30
2023-02-22T00:09:40.278Z,10.73
2023-02-22T00:12:10.296Z,14.33
2023-02-22T00:14:40.489Z,13.33
2023-02-22T00:17:08.909Z,13.20
2023-02-22T00:19:37.774Z,13.70
2023-02-22T00:22:06.206Z,14.47
2023-02-22T00:24:36.535Z,13.93
2023-02-22T00:27:06.506Z,14.57
2023-02-22T00:29:35.572Z,13.97
2023-02-22T00:32:04.276Z,13.70
2023-02-22T00:34:32.816Z,13.67
2023-02-22T00:37:04.461Z,14.33
2023-02-22T00:39:32.966Z,13.93
2023-02-22T00:42:01.327Z,15.63
2023-02-22T00:44:33.250Z,15.70
2023-02-22T00:47:01.694Z,15.27
2023-02-22T00:49:30.112Z,13.93
2023-02-22T00:51:58.502Z,14.23
2023-02-22T00:54:26.828Z,14.43
2023-02-22T00:56:55.296Z,13.43
2023-02-22T00:59:23.667Z,13.43
2023-02-22T01:01:53.852Z,15.73
2023-02-22T01:04:22.466Z,13.20
2023-02-22T01:06:51.582Z,13.77
2023-02-22T01:09:20.051Z,12.87
2023-02-22T01:11:49.205Z,13.37
2023-02-22T01:14:21.251Z,11.90
2023-02-22T01:16:50.806Z,12.13
2023-02-22T01:19:21.949Z,13.17
2023-02-22T01:21:51.395Z,13.53
2023-02-22T01:24:19.906Z,12.43
2023-02-22T01:26:52.658Z,13.03
2023-02-22T01:29:22.409Z,14.00
2023-02-22T01:31:55.988Z,13.30
2023-02-22T01:34:26.329Z,13.43
2023-02-22T01:36:54.825Z,12.30
2023-02-22T01:39:23.305Z,12.63
2023-02-22T01:41:53.805Z,12.40
2023-02-22T01:44:28.899Z,11.80
2023-02-22T01:47:02.161Z,11.53
2023-02-22T01:49:36.077Z,12.10
2023-02-22T01:52:09.868Z,11.93
2023-02-22T01:54:43.122Z,10.53
2023-02-22T01:57:17.131Z,10.60
2023-02-22T01:59:49.983Z,11.20
2023-02-22T02:02:21.748Z,12.13
2023-02-22T02:04:51.600Z,11.33
2023-02-22T02:07:22.777Z,10.43
2023-02-22T02:09:59.682Z,10.80
2023-02-22T02:12:31.280Z,10.77
2023-02-22T02:15:21.870Z,10.00
2023-02-22T02:17:52.622Z,11.00
2023-02-22T02:20:28.376Z,10.60
2023-02-22T02:23:06.352Z,10.30
2023-02-22T02:26:05.447Z,10.20
2023-02-22T02:29:16.203Z,10.87
2023-02-22T02:32:16.574Z,9.13
2023-02-22T02:34:56.262Z,10.00
2023-02-22T02:37:34.435Z,9.63
2023-02-22T02:40:12.519Z,10.10
2023-02-22T02:42:45.868Z,9.80
2023-02-22T02:45:20.604Z,10.50
2023-02-22T02:47:56.674Z,10.07
2023-02-22T02:50:28.585Z,8.27
2023-02-22T02:53:02.569Z,9.23
2023-02-22T02:55:36.774Z,8.97
2023-02-22T02:58:06.316Z,9.33
2023-02-22T03:00:39.698Z,10.10
2023-02-22T03:03:29.829Z,9.60
2023-02-22T03:06:22.976Z,9.73
2023-02-22T03:08:58.567Z,8.57
2023-02-22T03:11:31.569Z,8.67
2023-02-22T03:14:08.414Z,8.07
2023-02-22T03:16:46.030Z,8.57
2023-02-22T03:19:24.615Z,8.67
2023-02-22T03:21:59.001Z,7.90
2023-02-22T03:24:33.064Z,7.93
2023-02-22T03:27:09.482Z,8.70
2023-02-22T03:29:45.475Z,8.43
2023-02-22T03:32:23.039Z,8.60
2023-02-22T03:34:58.274Z,9.50
2023-02-22T03:37:34.172Z,8.93
2023-02-22T03:40:14.027Z,8.77
2023-02-22T03:42:50.269Z,8.47
2023-02-22T03:45:22.246Z,8.67
2023-02-22T03:47:54.598Z,8.40
2023-02-22T03:50:31.117Z,8.67
2023-02-22T03:53:00.323Z,8.73
2023-02-22T03:55:31.610Z,8.63
2023-02-22T03:58:03.401Z,9.33
2023-02-22T04:00:35.255Z,8.60
2023-02-22T04:03:04.426Z,8.83
2023-02-22T04:05:34.454Z,8.37
2023-02-22T04:08:03.439Z,8.47
2023-02-22T04:10:33.541Z,8.27
2023-02-22T04:13:02.105Z,8.27
2023-02-22T04:15:30.885Z,8.27
2023-02-22T04:18:05.932Z,8.27
2023-02-22T04:20:35.770Z,8.30
2023-02-22T04:23:10.589Z,8.53
2023-02-22T04:25:41.977Z,8.30
2023-02-22T04:28:14.104Z,8.30
2023-02-22T04:30:54.232Z,8.00
2023-02-22T04:33:24.577Z,8.23
2023-02-22T04:35:57.806Z,8.77
2023-02-22T04:38:27.289Z,8.37
2023-02-22T04:40:57.647Z,9.07
2023-02-22T04:43:26.742Z,9.37
2023-02-22T04:46:04.584Z,8.33
2023-02-22T04:48:33.286Z,8.50
2023-02-22T04:51:03.210Z,8.80
2023-02-22T04:53:32.824Z,10.40
2023-02-22T04:56:01.865Z,8.13
2023-02-22T04:58:31.949Z,7.90
2023-02-22T05:01:00.940Z,7.67
2023-02-22T05:03:29.473Z,8.63
2023-02-22T05:05:57.904Z,10.70
2023-02-22T05:08:29.799Z,11.10
2023-02-22T05:10:58.293Z,12.67
2023-02-22T05:13:26.758Z,13.37
2023-02-22T05:15:55.412Z,12.80
2023-02-22T05:18:23.867Z,12.77
2023-02-22T05:20:52.675Z,13.30
2023-02-22T05:23:21.085Z,14.77
2023-02-22T05:25:50.904Z,12.70
2023-02-22T05:28:19.423Z,14.10
2023-02-22T05:30:47.945Z,14.17
2023-02-22T05:33:16.387Z,16.37
2023-02-22T05:35:44.746Z,15.67
2023-02-22T05:38:15.190Z,15.47
2023-02-22T05:40:44.782Z,15.77
2023-02-22T05:43:15.788Z,16.87
2023-02-22T05:45:44.324Z,16.87
2023-02-22T05:48:13.716Z,14.57
2023-02-22T05:50:42.121Z,14.60
2023-02-22T05:53:10.514Z,16.27
2023-02-22T05:55:38.943Z,15.07
2023-02-22T05:58:07.282Z,14.57
2023-02-22T06:00:37.378Z,14.43
2023-02-22T06:03:08.101Z,14.73
2023-02-22T06:05:36.986Z,14.90
2023-02-22T06:08:07.700Z,14.67
2023-02-22T06:10:36.220Z,13.53
2023-02-22T06:13:05.979Z,14.47
2023-02-22T06:15:34.503Z,14.73
2023-02-22T06:18:04.445Z,15.37
2023-02-22T06:20:33.487Z,14.60
2023-02-22T06:23:01.836Z,15.23
2023-02-22T06:25:32.587Z,15.33
2023-02-22T06:28:01.826Z,13.83
2023-02-22T06:30:31.274Z,14.13
2023-02-22T06:32:59.687Z,14.43
2023-02-22T06:35:29.518Z,13.73
2023-02-22T06:37:57.947Z,13.93
2023-02-22T06:40:29.644Z,15.23
2023-02-22T06:43:00.041Z,14.47
2023-02-22T06:45:28.713Z,14.93
2023-02-22T06:47:57.043Z,14.23
2023-02-22T06:50:28.911Z,13.23
2023-02-22T06:52:59.338Z,15.37
2023-02-22T06:55:29.936Z,13.13
2023-02-22T06:57:58.325Z,14.77
2023-02-22T07:00:28.530Z,14.43
2023-02-22T07:02:57.677Z,13.87
2023-02-22T07:05:27.676Z,14.53
2023-02-22T07:08:04.860Z,14.97
2023-02-22T07:10:34.368Z,14.70
2023-02-22T07:13:03.573Z,14.73
2023-02-22T07:15:33.678Z,15.60
2023-02-22T07:18:02.809Z,15.60
2023-02-22T07:20:32.635Z,15.67
2023-02-22T07:23:02.793Z,15.13
2023-02-22T07:25:31.188Z,15.67
2023-02-22T07:28:00.006Z,15.20
2023-02-22T07:30:31.298Z,16.43
2023-02-22T07:33:01.234Z,16.77
2023-02-22T07:35:31.637Z,16.00
2023-02-22T07:38:00.679Z,16.50
2023-02-22T07:40:30.654Z,16.63
2023-02-22T07:43:01.194Z,18.53
2023-02-22T07:45:31.264Z,17.80
2023-02-22T07:48:00.611Z,17.53
2023-02-22T07:50:31.432Z,15.90
2023-02-22T07:53:03.786Z,16.07
2023-02-22T07:55:34.761Z,16.20
2023-02-22T07:58:06.014Z,14.07
2023-02-22T08:00:36.694Z,15.90
2023-02-22T08:03:07.274Z,17.07
2023-02-22T08:05:37.339Z,15.60
2023-02-22T08:08:07.027Z,16.03
2023-02-22T08:10:37.531Z,15.00
2023-02-22T08:13:06.941Z,15.10
2023-02-22T08:15:37.714Z,14.43
2023-02-22T08:18:09.233Z,21.20
2023-02-22T08:20:38.477Z,14.27
2023-02-22T08:23:07.757Z,11.00
2023-02-22T08:25:37.859Z,10.50
2023-02-22T08:28:08.958Z,10.40
2023-02-22T08:30:40.577Z,11.03
2023-02-22T08:33:09.331Z,9.93
2023-02-22T08:35:37.993Z,10.63
2023-02-22T08:38:07.816Z,11.47
2023-02-22T08:40:39.487Z,10.23
2023-02-22T08:43:07.908Z,9.70
2023-02-22T08:45:36.464Z,8.97
2023-02-22T08:48:05.320Z,9.10
2023-02-22T08:50:35.673Z,9.23
2023-02-22T08:53:06.448Z,8.47
2023-02-22T08:55:39.706Z,9.53
2023-02-22T08:58:10.540Z,8.23
2023-02-22T09:00:40.588Z,8.30
2023-02-22T09:03:13.379Z,8.07
2023-02-22T09:05:42.457Z,8.23
2023-02-22T09:08:11.248Z,9.80
2023-02-22T09:10:41.196Z,8.93
2023-02-22T09:13:09.774Z,8.57
2023-02-22T09:15:39.784Z,10.20
2023-02-22T09:18:09.881Z,9.13
2023-02-22T09:20:38.364Z,8.73
2023-02-22T09:23:09.863Z,8.83
2023-02-22T09:25:38.910Z,7.83
2023-02-22T09:28:09.295Z,7.70
2023-02-22T09:30:38.379Z,8.37
2023-02-22T09:33:10.326Z,9.07
2023-02-22T09:35:42.561Z,9.17
2023-02-22T09:38:11.972Z,8.27
2023-02-22T09:40:46.704Z,8.97
2023-02-22T09:43:35.849Z,9.53
2023-02-22T09:46:19.522Z,9.03
2023-02-22T09:48:59.400Z,8.63
2023-02-22T09:51:32.166Z,9.67
2023-02-22T09:54:05.421Z,9.10
2023-02-22T09:56:35.327Z,9.70
2023-02-22T09:59:09.111Z,9.90
2023-02-22T10:01:44.481Z,9.17
2023-02-22T10:04:20.610Z,8.90
2023-02-22T10:07:06.234Z,10.37
2023-02-22T10:09:42.792Z,9.83
2023-02-22T10:12:16.325Z,10.17
2023-02-22T10:15:01.419Z,9.23
2023-02-22T10:17:37.659Z,9.40
2023-02-22T10:20:22.338Z,9.70
2023-02-22T10:23:03.666Z,9.43
2023-02-22T10:25:37.146Z,9.93
2023-02-22T10:28:12.535Z,9.37
2023-02-22T10:30:44.824Z,9.23
2023-02-22T10:33:18.536Z,9.97
2023-02-22T10:35:47.384Z,9.37
2023-02-22T10:38:20.378Z,9.67
2023-02-22T10:40:54.888Z,9.20
2023-02-22T10:43:24.219Z,9.83
2023-02-22T10:45:56.494Z,9.20
2023-02-22T10:48:27.822Z,9.97
2023-02-22T10:51:02.189Z,8.77
2023-02-22T10:53:31.329Z,9.40
2023-02-22T10:56:13.287Z,8.10
2023-02-22T10:58:48.041Z,8.80
2023-02-22T11:01:27.929Z,8.47
2023-02-22T11:04:02.041Z,7.97
2023-02-22T11:06:31.785Z,8.87
2023-02-22T11:09:10.473Z,8.90
2023-02-22T11:11:40.032Z,8.70
2023-02-22T11:14:10.950Z,9.27
2023-02-22T11:16:44.525Z,9.03
2023-02-22T11:19:23.300Z,8.53
2023-02-22T11:21:54.380Z,8.07
2023-02-22T11:24:30.378Z,8.73
2023-02-22T11:27:03.111Z,8.23
2023-02-22T11:29:34.407Z,8.47
2023-02-22T11:32:14.764Z,8.83
2023-02-22T11:34:44.004Z,7.93
2023-02-22T11:37:29.840Z,7.53
2023-02-22T11:40:25.008Z,7.83
2023-02-22T11:43:12.422Z,7.90
2023-02-22T11:45:49.843Z,8.27
2023-02-22T11:48:26.596Z,8.60
2023-02-22T11:51:05.017Z,8.60
2023-02-22T11:53:48.835Z,8.00
2023-02-22T11:56:35.760Z,7.23
2023-02-22T11:59:16.947Z,7.83
2023-02-22T12:01:51.661Z,7.33
2023-02-22T12:05:04.494Z,7.60
2023-02-22T12:07:54.332Z,7.13
2023-02-22T12:10:34.212Z,6.70
2023-02-22T12:13:18.884Z,8.20
2023-02-22T12:15:57.099Z,6.77
2023-02-22T12:18:34.212Z,6.07
2023-02-22T12:21:06.124Z,7.87
2023-02-22T12:23:45.018Z,7.70
2023-02-22T12:26:20.169Z,7.37
2023-02-22T12:28:59.472Z,7.13
2023-02-22T12:31:34.438Z,6.67
2023-02-22T12:34:12.097Z,7.27
2023-02-22T12:36:46.819Z,6.63
2023-02-22T12:39:52.191Z,7.27
2023-02-22T12:42:29.386Z,7.37
2023-02-22T12:45:05.761Z,5.97
2023-02-22T12:47:41.821Z,6.10
2023-02-22T12:50:19.856Z,6.20
2023-02-22T12:52:53.193Z,6.63
2023-02-22T12:55:26.375Z,6.07
2023-02-22T12:58:03.553Z,5.80
2023-02-22T13:00:39.348Z,6.53
2023-02-22T13:03:30.762Z,6.37
2023-02-22T13:06:21.706Z,6.63
2023-02-22T13:09:00.589Z,5.90
2023-02-22T13:11:38.252Z,6.47
2023-02-22T13:14:34.583Z,6.13
2023-02-22T13:17:07.820Z,6.40
2023-02-22T13:19:44.376Z,6.77
2023-02-22T13:22:20.438Z,7.40
2023-02-22T13:25:02.780Z,6.87
2023-02-22T13:27:39.725Z,6.67
2023-02-22T13:30:19.636Z,6.90
2023-02-22T13:33:04.279Z,7.17
2023-02-22T13:35:47.476Z,8.73
2023-02-22T13:38:51.353Z,8.30
2023-02-22T13:41:40.459Z,7.73
2023-02-22T13:44:47.908Z,7.17
2023-02-22T13:47:55.523Z,7.97
2023-02-22T13:50:40.071Z,8.73
2023-02-22T13:53:15.789Z,8.60
2023-02-22T13:55:49.635Z,8.90
2023-02-22T13:58:18.205Z,8.40
2023-02-22T14:00:50.642Z,9.43
2023-02-22T14:03:41.241Z,8.83
2023-02-22T14:06:11.882Z,9.00
2023-02-22T14:08:46.903Z,9.07
2023-02-22T14:11:56.846Z,8.20
2023-02-22T14:14:26.061Z,9.17
2023-02-22T14:17:28.502Z,9.63
2023-02-22T14:20:21.401Z,8.67
2023-02-22T14:22:53.143Z,8.20
2023-02-22T14:25:45.962Z,8.83
2023-02-22T14:28:38.252Z,7.93
2023-02-22T14:31:17.422Z,8.90
2023-02-22T14:34:04.040Z,7.73
2023-02-22T14:36:36.497Z,9.87
2023-02-22T14:39:12.427Z,9.80
2023-02-22T14:41:47.998Z,8.57
2023-02-22T14:44:22.056Z,8.07
2023-02-22T14:46:52.997Z,10.57
2023-02-22T14:49:28.590Z,13.50
2023-02-22T14:52:04.008Z,10.97
2023-02-22T14:54:39.997Z,9.00
2023-02-22T14:57:15.934Z,8.27
2023-02-22T15:00:01.291Z,8.70
2023-02-22T15:02:40.836Z,7.03
2023-02-22T15:05:14.860Z,7.70
2023-02-22T15:07:52.976Z,8.03
2023-02-22T15:10:26.096Z,8.20
2023-02-22T15:13:09.994Z,6.80
2023-02-22T15:15:41.056Z,7.13
2023-02-22T15:18:23.465Z,7.00
2023-02-22T15:20:57.787Z,7.33
2023-02-22T15:23:33.452Z,6.57
2023-02-22T15:26:03.245Z,6.60
2023-02-22T15:28:32.401Z,6.63
2023-02-22T15:31:26.025Z,6.07
2023-02-22T15:33:55.605Z,7.33
2023-02-22T15:36:28.538Z,6.27
2023-02-22T15:38:59.664Z,6.13
2023-02-22T15:41:31.734Z,6.60
2023-02-22T15:44:17.793Z,6.10
2023-02-22T15:46:51.213Z,6.90
2023-02-22T15:49:24.525Z,6.47
2023-02-22T15:52:07.057Z,6.93
2023-02-22T15:54:43.984Z,7.27
2023-02-22T15:57:17.430Z,6.60
2023-02-22T15:59:49.803Z,6.53
2023-02-22T16:02:33.009Z,6.77
2023-02-22T16:05:06.825Z,6.43
2023-02-22T16:07:42.023Z,6.20
2023-02-22T16:10:23.784Z,7.27
2023-02-22T16:13:05.087Z,6.53
2023-02-22T16:15:33.981Z,6.20
2023-02-22T16:18:27.299Z,6.13
2023-02-22T16:21:04.211Z,6.63
2023-02-22T16:23:44.988Z,6.53
2023-02-22T16:26:30.087Z,7.10
2023-02-22T16:29:00.509Z,7.83
2023-02-22T16:31:33.709Z,6.70
2023-02-22T16:34:03.709Z,6.37
2023-02-22T16:36:41.336Z,6.43
2023-02-22T16:39:20.233Z,6.50
2023-02-22T16:41:51.445Z,6.30
2023-02-22T16:44:21.510Z,5.87
2023-02-22T16:46:49.969Z,6.07
2023-02-22T16:49:18.550Z,7.10
2023-02-22T16:51:49.062Z,6.40
2023-02-22T16:54:24.436Z,6.37
2023-02-22T16:56:53.196Z,6.20
2023-02-22T16:59:21.619Z,6.83
2023-02-22T17:01:50.356Z,6.10
2023-02-22T17:04:22.169Z,6.20
2023-02-22T17:06:50.551Z,6.50
2023-02-22T17:09:21.793Z,6.50
2023-02-22T17:11:52.726Z,6.47
2023-02-22T17:14:27.127Z,6.20
2023-02-22T17:16:55.697Z,5.37
2023-02-22T17:19:25.793Z,6.20
2023-02-22T17:21:54.257Z,5.97
2023-02-22T17:24:29.425Z,6.20
2023-02-22T17:26:59.888Z,7.17
2023-02-22T17:29:29.168Z,6.70
2023-02-22T17:31:57.950Z,7.27
2023-02-22T17:34:26.426Z,7.23
2023-02-22T17:36:56.490Z,8.87
2023-02-22T17:39:27.491Z,7.27
2023-02-22T17:41:57.974Z,8.20
2023-02-22T17:44:26.485Z,7.53
2023-02-22T17:46:55.838Z,8.33
2023-02-22T17:49:24.323Z,7.80
2023-02-22T17:51:53.331Z,7.97
2023-02-22T17:54:23.221Z,9.33
2023-02-22T17:56:53.094Z,13.17
2023-02-22T17:59:21.540Z,13.27
2023-02-22T18:01:52.849Z,12.07
2023-02-22T18:04:21.348Z,10.60
2023-02-22T18:06:49.859Z,11.03
2023-02-22T18:09:20.382Z,10.33
2023-02-22T18:11:48.943Z,9.73
2023-02-22T18:14:18.890Z,8.87
2023-02-22T18:16:48.503Z,9.90
2023-02-22T18:19:21.013Z,10.53
2023-02-22T18:21:50.836Z,11.27
2023-02-22T18:24:19.274Z,10.60
2023-02-22T18:26:47.749Z,11.33
2023-02-22T18:29:16.088Z,10.20
2023-02-22T18:31:46.651Z,8.13
2023-02-22T18:34:15.932Z,8.03
2023-02-22T18:36:44.426Z,8.10
2023-02-22T18:39:13.153Z,8.43
2023-02-22T18:41:41.618Z,7.13
2023-02-22T18:44:11.260Z,6.43
2023-02-22T18:46:39.682Z,6.03
2023-02-22T18:49:12.937Z,6.17
2023-02-22T18:51:43.751Z,6.10
2023-02-22T18:54:13.809Z,5.10
2023-02-22T18:56:42.269Z,5.70
2023-02-22T18:59:12.360Z,5.03
2023-02-22T19:01:49.022Z,5.33
2023-02-22T19:04:19.964Z,5.23
2023-02-22T19:06:49.924Z,4.80
2023-02-22T19:09:18.414Z,5.20
2023-02-22T19:11:48.470Z,4.77
2023-02-22T19:14:17.475Z,5.80
2023-02-22T19:16:46.580Z,5.20
2023-02-22T19:19:20.868Z,5.43
2023-02-22T19:21:51.869Z,6.17
2023-02-22T19:24:20.824Z,5.10
2023-02-22T19:26:50.951Z,5.60
2023-02-22T19:29:22.351Z,5.20
2023-02-22T19:31:51.903Z,14.03
2023-02-22T19:34:23.942Z,16.23
2023-02-22T19:36:53.792Z,10.67
2023-02-22T19:41:52.649Z,6.40
2023-02-22T19:44:22.307Z,13.33
2023-02-22T19:46:52.321Z,12.43
2023-02-22T19:49:20.702Z,6.50
2023-02-22T19:51:49.652Z,7.07
2023-02-22T19:54:21.675Z,5.70
2023-02-22T19:56:52.025Z,4.63
2023-02-22T19:59:23.233Z,4.87
2023-02-22T20:01:55.192Z,5.07
2023-02-22T20:04:24.655Z,4.90
2023-02-22T20:06:55.353Z,4.33
2023-02-22T20:09:30.167Z,4.87
2023-02-22T20:11:58.664Z,5.23
2023-02-22T20:14:28.742Z,5.37
2023-02-22T20:16:59.501Z,5.20
2023-02-22T20:19:28.733Z,4.73
2023-02-22T20:21:57.929Z,5.90
2023-02-22T20:24:28.198Z,8.80
2023-02-22T20:26:58.361Z,9.33
2023-02-22T20:29:30.674Z,9.30
2023-02-22T20:32:00.252Z,10.13
2023-02-22T20:34:31.495Z,10.67
2023-02-22T20:37:00.595Z,11.70
2023-02-22T20:39:30.646Z,8.87
2023-02-22T20:42:00.676Z,8.33
2023-02-22T20:44:29.351Z,7.03
2023-02-22T20:46:58.881Z,7.47
2023-02-22T20:49:27.573Z,7.70
2023-02-22T20:51:56.014Z,5.73
2023-02-22T20:54:24.506Z,5.57
2023-02-22T20:56:54.649Z,5.47
2023-02-22T20:59:23.128Z,5.57
2023-02-22T21:01:53.319Z,5.77
2023-02-22T21:04:22.893Z,6.27
2023-02-22T21:06:52.152Z,5.93
2023-02-22T21:09:22.003Z,5.53
2023-02-22T21:11:50.598Z,6.10
2023-02-22T21:14:20.459Z,6.73
2023-02-22T21:16:51.359Z,5.87
2023-02-22T21:19:25.615Z,7.30
2023-02-22T21:21:57.107Z,5.87
2023-02-22T21:24:27.677Z,5.63
2023-02-22T21:26:59.243Z,5.63
2023-02-22T21:29:30.327Z,6.10
2023-02-22T21:31:58.940Z,6.10
2023-02-22T21:34:27.435Z,7.23
2023-02-22T21:36:56.975Z,7.13
2023-02-22T21:39:28.690Z,6.13
2023-02-22T21:42:00.674Z,6.90
2023-02-22T21:44:31.088Z,6.90
2023-02-22T21:46:59.472Z,7.07
2023-02-22T21:49:29.108Z,11.00
2023-02-22T21:51:57.816Z,9.17
2023-02-22T21:54:28.114Z,7.50
2023-02-22T21:56:56.817Z,6.47
2023-02-22T21:59:25.198Z,7.07
2023-02-22T22:01:56.762Z,7.00
2023-02-22T22:04:27.892Z,6.90
2023-02-22T22:06:57.928Z,6.97
2023-02-22T22:09:29.268Z,7.53
2023-02-22T22:11:59.404Z,7.83
2023-02-22T22:14:28.711Z,7.93
2023-02-22T22:17:01.527Z,7.77
2023-02-22T22:19:33.773Z,8.33
2023-02-22T22:22:02.881Z,8.13
2023-02-22T22:24:32.122Z,7.30
2023-02-22T22:27:03.888Z,7.20
2023-02-22T22:29:34.571Z,8.10
2023-02-22T22:32:06.194Z,7.60
2023-02-22T22:34:38.105Z,8.17
2023-02-22T22:37:06.747Z,7.33
2023-02-22T22:39:35.219Z,7.63
2023-02-22T22:42:03.715Z,7.40
2023-02-22T22:44:42.295Z,7.97
2023-02-22T22:47:13.854Z,8.03
2023-02-22T22:49:42.865Z,8.60
2023-02-22T22:52:13.992Z,7.83
2023-02-22T22:54:43.393Z,8.00
2023-02-22T22:57:12.436Z,7.50
2023-02-22T22:59:40.975Z,8.10
2023-02-22T23:02:16.642Z,8.60
2023-02-22T23:04:59.245Z,8.97
2023-02-22T23:07:31.061Z,10.13
2023-02-22T23:09:59.430Z,8.93
2023-02-22T23:12:31.636Z,8.60
2023-02-22T23:14:59.998Z,7.93
2023-02-22T23:17:41.178Z,7.70
2023-02-22T23:20:12.629Z,8.07
2023-02-22T23:22:46.938Z,7.90
2023-02-22T23:25:15.992Z,7.77
2023-02-22T23:27:44.331Z,11.70
2023-02-22T23:30:15.127Z,16.93
2023-02-22T23:32:43.810Z,16.30
2023-02-22T23:35:14.401Z,12.33
2023-02-22T23:37:43.246Z,9.33
2023-02-22T23:40:17.112Z,8.33
2023-02-22T23:42:49.868Z,23.40
2023-02-22T23:45:23.798Z,18.97
2023-02-22T23:47:54.981Z,17.10
2023-02-22T23:50:26.792Z,18.97
2023-02-22T23:52:59.691Z,23.87
2023-02-22T23:55:31.661Z,24.50
2023-02-22T23:58:00.577Z,28.83
